Time;durP1;ratioP1;P1;durP2;ratioP2;P2;SDS_P1;SDS_P2;PMS_P1;PMS_P2;Temp;Humidity;BMP_temperature;BMP_pressure;BME280_temperature;BME280_humidity;BME280_pressure;Samples;Min_cycle;Max_cycle;Signal;HPM_P1;HPM_P2
2021/12/19 00:00:17;;;;;;;10.80;6.72;;;;;;;4.00;80.08;101651.44;1087408;54;20025;-75
2021/12/19 00:01:26;;;;;;;12.70;7.68;;;;;;;3.96;80.05;101649.00;1087358;54;20034;-76
2021/12/19 00:02:44;;;;;;;10.82;6.53;;;;;;;3.98;80.21;101644.47;1087076;54;20031;-76
2021/12/19 00:03:53;;;;;;;11.98;7.03;;;;;;;3.93;80.01;101652.59;1087495;54;20035;-74
2021/12/19 00:08:53;;;;;;;10.77;6.32;;;;;;;3.92;80.12;101658.81;1087650;54;20029;-75
2021/12/19 00:09:55;;;;;;;9.98;6.20;;;;;;;3.90;79.95;101664.19;1087569;54;20030;-75
2021/12/19 00:10:59;;;;;;;11.07;6.45;;;;;;;3.89;79.99;101665.09;1087711;54;20022;-75
2021/12/19 00:12:01;;;;;;;11.95;6.93;;;;;;;3.83;80.14;101660.06;1087614;54;20034;-74
2021/12/19 00:13:06;;;;;;;10.43;6.50;;;;;;;3.85;80.16;101662.63;1087663;54;20038;-75
2021/12/19 00:14:11;;;;;;;13.25;6.78;;;;;;;3.87;80.17;101661.66;1087559;54;20027;-76
2021/12/19 00:15:16;;;;;;;10.43;6.97;;;;;;;3.82;80.48;101654.84;1087618;54;20342;-76
2021/12/19 00:16:20;;;;;;;11.00;6.53;;;;;;;3.80;80.16;101657.53;1087517;54;20046;-75
2021/12/19 00:17:22;;;;;;;11.55;6.70;;;;;;;3.82;80.11;101660.13;1087521;54;20034;-75
2021/12/19 00:18:26;;;;;;;10.00;6.57;;;;;;;3.85;80.38;101666.16;1087391;54;20030;-75
2021/12/19 00:19:28;;;;;;;10.75;6.50;;;;;;;3.83;80.43;101668.00;1087536;47;20034;-75
2021/12/19 00:20:33;;;;;;;10.35;6.30;;;;;;;3.82;80.09;101658.34;1087815;46;20031;-75
2021/12/19 00:21:35;;;;;;;10.82;6.35;;;;;;;3.84;80.07;101658.28;1087323;54;20034;-75
2021/12/19 00:22:40;;;;;;;10.23;6.28;;;;;;;3.83;79.89;101657.41;1087341;54;20034;-75
2021/12/19 00:23:43;;;;;;;10.32;6.90;;;;;;;3.80;80.45;101656.69;1087398;54;20038;-76
2021/12/19 00:24:47;;;;;;;10.07;6.20;;;;;;;3.81;80.24;101651.31;1087325;54;20040;-75
2021/12/19 00:25:49;;;;;;;10.65;6.03;;;;;;;3.87;80.01;101650.22;1087331;54;20037;-75
2021/12/19 00:26:54;;;;;;;9.90;6.15;;;;;;;3.86;79.89;101646.72;1087325;54;20031;-74
2021/12/19 00:27:55;;;;;;;10.25;6.47;;;;;;;3.89;80.03;101637.78;1087309;54;20030;-75
2021/12/19 00:29:00;;;;;;;10.98;6.65;;;;;;;3.89;79.60;101649.22;1087319;54;20120;-76
2021/12/19 00:30:03;;;;;;;10.65;5.82;;;;;;;3.88;79.68;101655.44;1087285;54;20041;-75
2021/12/19 00:31:12;;;;;;;12.27;7.10;;;;;;;3.85;80.01;101642.34;1087304;54;20038;-75
2021/12/19 00:32:13;;;;;;;9.60;5.82;;;;;;;3.87;79.91;101634.34;1087333;54;20038;-75
2021/12/19 00:33:17;;;;;;;10.45;6.28;;;;;;;3.89;79.86;101640.44;1088745;39;20685;-76
2021/12/19 00:34:19;;;;;;;11.30;7.03;;;;;;;3.89;80.00;101638.63;1087472;54;20041;-76
2021/12/19 00:35:23;;;;;;;10.85;6.95;;;;;;;3.86;79.92;101633.50;1087380;54;20026;-75
2021/12/19 00:36:25;;;;;;;10.07;6.05;;;;;;;3.91;80.08;101630.66;1087329;54;20619;-75
2021/12/19 00:37:30;;;;;;;11.45;6.40;;;;;;;3.88;79.44;101628.13;1087544;46;20050;-75
2021/12/19 00:38:32;;;;;;;11.25;7.05;;;;;;;3.93;79.63;101625.28;1087410;54;20053;-75
2021/12/19 00:39:36;;;;;;;10.00;6.72;;;;;;;3.98;79.63;101628.59;1087660;46;20058;-75
2021/12/19 00:40:38;;;;;;;9.40;5.82;;;;;;;4.02;79.20;101625.75;1087238;54;20057;-75
2021/12/19 00:41:43;;;;;;;9.40;6.35;;;;;;;4.07;79.50;101633.50;1087180;54;20031;-75
2021/12/19 00:42:50;;;;;;;9.60;6.15;;;;;;;4.09;79.31;101631.66;1087138;54;20027;-75
2021/12/19 00:44:07;;;;;;;9.57;6.43;;;;;;;4.09;79.13;101626.38;1087156;54;20109;-75
2021/12/19 00:45:20;;;;;;;9.32;5.25;;;;;;;4.09;79.02;101629.03;1087248;54;20094;-75
2021/12/19 00:46:27;;;;;;;11.00;6.68;;;;;;;4.05;78.79;101627.44;1087430;54;20781;-75
2021/12/19 00:47:29;;;;;;;10.32;6.78;;;;;;;4.01;78.72;101625.84;1087457;54;20095;-75
2021/12/19 00:48:34;;;;;;;10.30;6.65;;;;;;;3.90;78.63;101624.50;1087524;54;20030;-75
2021/12/19 00:49:36;;;;;;;10.50;6.90;;;;;;;3.84;78.93;101623.88;1087572;54;20030;-75
2021/12/19 00:50:40;;;;;;;10.23;6.65;;;;;;;3.88;79.17;101618.41;1087403;54;20082;-75
2021/12/19 00:51:42;;;;;;;9.75;5.88;;;;;;;3.91;79.07;101617.44;1087427;54;20050;-75
2021/12/19 00:52:47;;;;;;;10.90;6.80;;;;;;;3.95;79.10;101612.88;1087585;54;20078;-76
2021/12/19 00:53:50;;;;;;;9.43;5.47;;;;;;;3.97;79.22;101613.69;1087368;54;20031;-75
2021/12/19 00:54:54;;;;;;;8.07;5.43;;;;;;;4.02;79.11;101612.53;1087521;54;20050;-75
2021/12/19 00:55:55;;;;;;;8.70;5.53;;;;;;;3.98;79.21;101616.25;1087597;54;20756;-74
2021/12/19 00:57:00;;;;;;;9.23;5.95;;;;;;;4.03;78.90;101622.19;1088019;47;20654;-76
2021/12/19 00:58:01;;;;;;;8.70;5.50;;;;;;;4.12;78.69;101618.31;1087883;46;21119;-75
2021/12/19 00:59:06;;;;;;;7.97;5.05;;;;;;;4.12;78.41;101618.31;1087615;54;20069;-75
2021/12/19 01:00:10;;;;;;;9.50;5.85;;;;;;;4.15;78.34;101612.91;1087674;54;20058;-75
2021/12/19 01:01:16;;;;;;;8.90;5.80;;;;;;;4.11;78.26;101619.22;1087590;54;20034;-75
2021/12/19 01:02:21;;;;;;;8.75;5.57;;;;;;;4.08;78.18;101619.34;1087521;54;20038;-75
2021/12/19 01:03:25;;;;;;;8.75;5.78;;;;;;;4.10;78.23;101612.22;1087202;54;21925;-75
2021/12/19 01:04:26;;;;;;;8.52;5.00;;;;;;;4.11;78.32;101606.00;1087670;54;20035;-76
2021/12/19 01:05:33;;;;;;;8.65;5.45;;;;;;;4.11;78.24;101611.28;1087624;54;20031;-74
2021/12/19 01:06:35;;;;;;;15.57;6.10;;;;;;;4.12;78.31;101615.66;1087609;54;20038;-74
2021/12/19 01:07:40;;;;;;;8.98;5.45;;;;;;;4.08;78.37;101611.41;1087577;54;20078;-75
2021/12/19 01:08:42;;;;;;;8.85;5.55;;;;;;;4.04;78.65;101612.47;1087670;54;20781;-74
2021/12/19 01:09:46;;;;;;;7.85;5.20;;;;;;;4.05;78.50;101616.84;1087599;54;20031;-75
2021/12/19 01:10:48;;;;;;;8.23;5.53;;;;;;;4.10;78.51;101611.38;1087529;54;20046;-74
2021/12/19 01:11:52;;;;;;;10.50;6.18;;;;;;;4.02;78.31;101607.25;1087629;54;20787;-75
2021/12/19 01:12:54;;;;;;;10.40;6.85;;;;;;;3.98;78.74;101605.66;1087642;54;20043;-75
2021/12/19 01:13:58;;;;;;;10.35;6.43;;;;;;;3.99;78.64;101603.84;1088819;46;20042;-75
2021/12/19 01:15:00;;;;;;;11.30;6.88;;;;;;;3.85;79.06;101609.72;1087483;54;20026;-75
2021/12/19 01:16:12;;;;;;;10.23;6.30;;;;;;;3.98;78.56;101597.72;1087533;54;20037;-75
2021/12/19 01:17:16;;;;;;;9.00;5.50;;;;;;;4.05;78.67;101606.28;1087600;54;20749;-74
2021/12/19 01:18:21;;;;;;;10.18;6.47;;;;;;;4.08;78.17;101599.97;1087638;54;20034;-75
2021/12/19 01:19:26;;;;;;;11.38;7.15;;;;;;;3.97;78.14;101606.59;1087707;31;20728;-75
2021/12/19 01:20:30;;;;;;;12.15;7.75;;;;;;;3.87;78.50;101603.44;1087669;54;20674;-75
2021/12/19 01:21:34;;;;;;;12.82;8.18;;;;;;;3.84;78.77;101608.88;1087602;54;20810;-74
2021/12/19 01:22:36;;;;;;;11.90;7.32;;;;;;;3.88;79.15;101602.53;1089679;39;20618;-74
2021/12/19 01:23:41;;;;;;;12.25;7.63;;;;;;;3.90;78.65;101605.97;1087733;54;20030;-74
2021/12/19 01:24:43;;;;;;;12.95;7.60;;;;;;;3.92;78.75;101605.03;1087711;54;20035;-75
2021/12/19 01:25:47;;;;;;;15.88;7.30;;;;;;;3.94;78.79;101605.84;1088211;46;20073;-75
2021/12/19 01:26:51;;;;;;;11.45;7.45;;;;;;;3.96;78.69;101604.00;1087723;47;20039;-75
2021/12/19 01:27:53;;;;;;;11.80;6.90;;;;;;;3.99;78.58;101604.75;1087638;54;20031;-76
2021/12/19 01:28:57;;;;;;;10.02;6.32;;;;;;;4.00;78.95;101603.81;1087682;54;20105;-74
2021/12/19 01:29:58;;;;;;;13.50;7.55;;;;;;;4.02;78.93;101609.03;1087600;54;20041;-74
2021/12/19 01:31:03;;;;;;;11.20;6.25;;;;;;;4.06;78.83;101605.34;1087610;54;20030;-75
2021/12/19 01:32:06;;;;;;;11.90;6.95;;;;;;;4.08;78.85;101607.91;1087609;54;20049;-75
2021/12/19 01:33:10;;;;;;;10.95;6.72;;;;;;;4.12;78.70;101610.38;1087738;54;20030;-75
2021/12/19 01:34:14;;;;;;;9.75;6.30;;;;;;;4.13;78.91;101611.22;1087730;54;20042;-75
2021/12/19 01:35:22;;;;;;;11.30;6.65;;;;;;;4.17;78.67;101618.13;1087987;47;20040;-75
2021/12/19 01:36:27;;;;;;;10.88;7.10;;;;;;;4.15;78.48;101614.66;1088354;47;20034;-75
2021/12/19 01:37:28;;;;;;;9.40;6.47;;;;;;;4.15;78.61;101618.19;1087570;54;20031;-75
2021/12/19 01:38:33;;;;;;;11.43;6.80;;;;;;;4.16;78.42;101622.53;1087672;54;20038;-75
2021/12/19 01:39:34;;;;;;;11.13;6.25;;;;;;;4.13;78.53;101617.38;1088031;47;20038;-74
2021/12/19 01:40:38;;;;;;;11.05;6.55;;;;;;;4.17;78.50;101618.97;1087687;54;20034;-74
2021/12/19 01:41:47;;;;;;;10.57;6.47;;;;;;;4.15;78.79;101610.25;1087607;54;20049;-75
2021/12/19 01:42:55;;;;;;;13.30;6.57;;;;;;;4.17;78.43;101615.47;1087667;54;20034;-74
2021/12/19 01:43:59;;;;;;;10.57;6.53;;;;;;;4.13;78.63;101608.56;1087610;54;20049;-73
2021/12/19 01:45:02;;;;;;;12.18;7.38;;;;;;;4.01;79.22;101607.31;1088803;47;20037;-76
2021/12/19 01:46:06;;;;;;;11.50;6.63;;;;;;;4.10;78.93;101604.28;1087595;54;20061;-75
2021/12/19 01:47:10;;;;;;;10.35;6.10;;;;;;;4.17;78.80;101618.97;1089121;39;20808;-75
2021/12/19 01:48:15;;;;;;;11.73;6.43;;;;;;;4.23;78.60;101609.91;1087518;54;20027;-74
2021/12/19 01:49:21;;;;;;;11.95;7.60;;;;;;;4.24;78.80;101613.44;1087650;54;20035;-76
2021/12/19 01:50:26;;;;;;;11.10;7.32;;;;;;;4.12;78.93;101618.31;1088613;47;20034;-75
2021/12/19 01:51:31;;;;;;;12.68;7.70;;;;;;;4.09;78.93;101614.94;1087459;54;20035;-75
2021/12/19 01:52:33;;;;;;;12.35;7.82;;;;;;;3.85;79.37;101613.25;1087603;54;20067;-76
2021/12/19 01:53:37;;;;;;;12.98;8.07;;;;;;;3.81;79.98;101622.22;1087625;54;20037;-75
2021/12/19 01:54:39;;;;;;;13.90;8.45;;;;;;;3.95;79.61;101616.38;1087599;54;20030;-75
2021/12/19 01:55:45;;;;;;;13.10;8.75;;;;;;;3.80;80.12;101615.22;1087594;54;20034;-76
2021/12/19 01:56:47;;;;;;;15.65;8.88;;;;;;;3.71;80.11;101615.56;1087560;54;20030;-75
2021/12/19 01:57:51;;;;;;;15.15;9.60;;;;;;;3.68;80.28;101616.56;1087586;54;20030;-75
2021/12/19 01:58:53;;;;;;;16.90;9.80;;;;;;;3.69;80.29;101617.41;1087582;54;20041;-75
2021/12/19 01:59:58;;;;;;;15.38;9.75;;;;;;;3.63;80.64;101615.91;1087561;54;20042;-75
2021/12/19 02:01:02;;;;;;;14.07;8.57;;;;;;;3.65;80.67;101615.84;1087574;54;20034;-75
2021/12/19 02:02:04;;;;;;;15.70;9.07;;;;;;;3.59;80.80;101615.13;1087394;54;20065;-76
2021/12/19 02:03:09;;;;;;;14.52;9.18;;;;;;;3.59;80.85;101612.50;1087849;47;20019;-74
2021/12/19 02:04:12;;;;;;;16.63;10.52;;;;;;;3.64;80.80;101614.09;1087064;54;20732;-76
2021/12/19 02:05:19;;;;;;;13.80;9.32;;;;;;;3.56;81.20;101607.34;1087547;54;20054;-76
2021/12/19 02:06:21;;;;;;;14.55;9.07;;;;;;;3.62;81.16;101606.25;1087643;54;20034;-75
2021/12/19 02:07:26;;;;;;;14.93;9.27;;;;;;;3.61;80.91;101601.00;1087782;54;20034;-76
2021/12/19 02:08:30;;;;;;;14.48;9.48;;;;;;;3.62;81.06;101605.38;1087912;54;20718;-76
2021/12/19 02:09:32;;;;;;;13.27;8.18;;;;;;;3.82;80.39;101604.56;1087861;54;20041;-75
2021/12/19 02:10:38;;;;;;;16.65;9.68;;;;;;;3.77;80.64;101588.91;1087802;54;20034;-76
2021/12/19 02:11:41;;;;;;;14.48;8.77;;;;;;;3.64;80.68;101590.31;1087821;54;20030;-75
2021/12/19 02:12:45;;;;;;;14.27;8.93;;;;;;;3.53;81.16;101598.69;1087970;54;20030;-75
2021/12/19 02:13:47;;;;;;;15.43;9.38;;;;;;;3.41;81.67;101590.31;1087964;54;20030;-75
2021/12/19 02:14:51;;;;;;;17.88;10.32;;;;;;;3.35;82.04;101590.56;1087909;54;20682;-75
2021/12/19 02:15:55;;;;;;;16.30;9.70;;;;;;;3.34;82.29;101585.31;1087861;54;20045;-75
2021/12/19 02:16:57;;;;;;;17.30;10.63;;;;;;;3.31;82.25;101574.88;1087601;54;20035;-75
2021/12/19 02:18:03;;;;;;;16.40;9.82;;;;;;;3.41;82.22;101587.66;1087889;54;20033;-75
2021/12/19 02:19:06;;;;;;;13.10;8.88;;;;;;;3.49;81.83;101582.09;1087872;54;20050;-75
2021/12/19 02:20:15;;;;;;;16.23;9.63;;;;;;;3.30;82.33;101578.44;1087843;54;20090;-77
2021/12/19 02:21:19;;;;;;;14.07;9.18;;;;;;;3.28;82.21;101574.06;1087826;54;20046;-77
2021/12/19 02:22:20;;;;;;;13.65;8.93;;;;;;;3.35;82.14;101579.09;1087906;54;20042;-74
2021/12/19 02:23:27;;;;;;;14.48;8.90;;;;;;;3.29;82.35;101567.00;1088379;46;20034;-74
2021/12/19 02:24:28;;;;;;;13.60;8.68;;;;;;;3.34;82.31;101570.34;1087795;54;20121;-74
2021/12/19 02:25:33;;;;;;;13.85;8.52;;;;;;;3.42;82.05;101576.16;1087866;54;20037;-74
2021/12/19 02:26:36;;;;;;;12.65;8.20;;;;;;;3.58;81.32;101571.13;1087867;54;20034;-74
2021/12/19 02:27:41;;;;;;;13.27;8.10;;;;;;;3.53;81.61;101577.53;1087815;54;20030;-76
2021/12/19 02:28:45;;;;;;;16.58;10.00;;;;;;;3.37;81.89;101575.47;1087874;54;20042;-74
2021/12/19 02:29:47;;;;;;;15.45;9.93;;;;;;;3.35;82.32;101576.47;1087926;54;20030;-75
2021/12/19 02:30:54;;;;;;;15.98;9.15;;;;;;;3.41;81.90;101582.38;1087801;54;20765;-75
2021/12/19 02:31:55;;;;;;;15.50;9.38;;;;;;;3.37;81.99;101572.84;1087865;54;20030;-76
2021/12/19 02:33:00;;;;;;;15.57;10.32;;;;;;;3.42;82.14;101572.66;1087979;54;20030;-74
2021/12/19 02:34:06;;;;;;;15.63;9.27;;;;;;;3.43;81.96;101574.38;1087953;54;20054;-74
2021/12/19 02:35:19;;;;;;;15.50;9.77;;;;;;;3.39;82.04;101564.84;1087923;54;20120;-74
2021/12/19 02:36:37;;;;;;;16.30;9.18;;;;;;;3.32;82.36;101566.00;1087818;54;20035;-75
2021/12/19 02:38:07;;;;;;;15.45;9.88;;;;;;;3.36;81.99;101568.47;1087910;54;20031;-74
2021/12/19 02:39:35;;;;;;;15.65;9.20;;;;;;;3.24;82.04;101563.69;1087867;54;20034;-75
2021/12/19 02:48:29;;;;;;;14.80;9.15;;;;;;;3.45;81.74;101547.91;1087864;54;20041;-73
2021/12/19 02:49:32;;;;;;;15.50;9.23;;;;;;;3.48;81.95;101545.97;1087860;54;20723;-74
2021/12/19 02:50:43;;;;;;;13.73;8.63;;;;;;;3.59;81.19;101546.38;1090893;39;20578;-74
2021/12/19 02:51:47;;;;;;;12.05;7.82;;;;;;;3.56;80.84;101543.88;1087759;54;20046;-75
2021/12/19 02:52:49;;;;;;;13.07;8.20;;;;;;;3.61;80.82;101540.16;1087822;54;20034;-75
2021/12/19 02:53:56;;;;;;;10.88;6.85;;;;;;;3.64;80.83;101548.84;1087866;54;20035;-74
2021/12/19 02:54:57;;;;;;;12.98;7.80;;;;;;;3.71;80.69;101541.50;1087832;54;20057;-75
2021/12/19 02:56:02;;;;;;;10.98;6.85;;;;;;;3.85;80.32;101538.28;1087834;54;20023;-75
2021/12/19 02:57:04;;;;;;;10.77;5.93;;;;;;;3.93;79.84;101540.63;1087894;54;20035;-75
2021/12/19 02:58:09;;;;;;;9.32;5.75;;;;;;;3.95;79.35;101544.06;1087801;54;20611;-74
2021/12/19 02:59:10;;;;;;;9.68;5.68;;;;;;;3.99;79.30;101535.94;1087910;54;20039;-75
2021/12/19 03:00:18;;;;;;;9.05;5.50;;;;;;;4.06;78.86;101539.19;1087816;54;20065;-75
2021/12/19 03:01:20;;;;;;;8.45;4.82;;;;;;;4.09;78.92;101531.09;1087847;54;20030;-74
2021/12/19 03:02:24;;;;;;;8.27;4.95;;;;;;;4.12;78.75;101538.91;1087642;54;20042;-74
2021/12/19 03:03:26;;;;;;;7.85;4.75;;;;;;;4.15;78.41;101529.97;1087812;54;20049;-73
2021/12/19 03:04:30;;;;;;;7.05;4.40;;;;;;;4.17;78.26;101536.91;1087629;54;20030;-74
2021/12/19 03:05:33;;;;;;;6.28;3.58;;;;;;;4.19;78.09;101535.06;1087845;54;20035;-75
2021/12/19 03:06:45;;;;;;;6.72;4.03;;;;;;;4.21;77.66;101537.63;1087831;54;20030;-74
2021/12/19 03:07:50;;;;;;;6.95;3.83;;;;;;;4.14;77.69;101534.41;1088291;46;20670;-74
2021/12/19 03:08:57;;;;;;;6.07;3.70;;;;;;;4.19;77.83;101531.56;1087803;54;20042;-75
2021/12/19 03:10:16;;;;;;;7.68;4.13;;;;;;;4.16;77.55;101540.47;1087696;54;20050;-75
2021/12/19 03:11:56;;;;;;;6.65;3.83;;;;;;;4.03;77.43;101531.38;1087765;54;20042;-74
2021/12/19 03:13:03;;;;;;;7.32;4.13;;;;;;;3.91;77.71;101524.81;1087763;54;20030;-75
2021/12/19 03:18:00;;;;;;;6.32;3.83;;;;;;;3.71;77.75;101528.28;1087858;54;20034;-74
2021/12/19 03:19:02;;;;;;;6.78;4.18;;;;;;;3.71;77.82;101525.66;1087908;54;20031;-76
2021/12/19 03:20:08;;;;;;;7.63;4.13;;;;;;;3.69;77.79;101527.47;1087781;54;20852;-75
2021/12/19 03:21:13;;;;;;;8.63;4.40;;;;;;;3.88;77.35;101520.50;1087691;54;20035;-75
2021/12/19 03:22:20;;;;;;;7.05;4.03;;;;;;;3.98;77.25;101528.03;1087794;54;20067;-75
2021/12/19 03:23:21;;;;;;;7.38;4.78;;;;;;;3.93;76.99;101532.69;1087954;47;20038;-75
2021/12/19 03:24:26;;;;;;;7.63;4.45;;;;;;;3.96;77.20;101527.25;1087858;54;20034;-76
2021/12/19 03:25:28;;;;;;;7.68;4.82;;;;;;;3.89;77.29;101534.59;1087900;54;20038;-76
2021/12/19 03:26:33;;;;;;;7.55;4.53;;;;;;;4.05;76.95;101532.16;1088002;54;20019;-77
2021/12/19 03:27:35;;;;;;;7.60;4.05;;;;;;;4.04;76.65;101525.16;1090684;46;20038;-76
2021/12/19 03:28:39;;;;;;;7.97;4.75;;;;;;;4.06;76.46;101532.09;1088344;54;20019;-76
2021/12/19 03:29:41;;;;;;;7.10;3.85;;;;;;;4.11;76.73;101536.34;1095858;39;20306;-76
2021/12/19 03:30:47;;;;;;;6.45;3.47;;;;;;;4.19;76.08;101526.28;1088218;54;20018;-76
2021/12/19 03:31:48;;;;;;;6.47;3.90;;;;;;;4.13;76.31;101529.16;1100447;39;20543;-75
2021/12/19 03:32:53;;;;;;;6.00;3.50;;;;;;;4.18;76.11;101520.09;1088211;54;20030;-76
2021/12/19 03:33:55;;;;;;;7.20;4.40;;;;;;;4.17;76.39;101523.66;1088085;54;20034;-76
2021/12/19 03:34:59;;;;;;;7.93;4.07;;;;;;;4.22;76.19;101518.16;1087917;54;20177;-75
2021/12/19 03:36:01;;;;;;;7.60;4.25;;;;;;;4.26;76.43;101518.91;1087879;54;20046;-74
2021/12/19 03:37:05;;;;;;;6.25;3.63;;;;;;;4.31;75.89;101509.81;1087861;54;20030;-75
2021/12/19 03:38:12;;;;;;;6.18;3.65;;;;;;;4.35;75.92;101522.00;1087899;54;20091;-76
2021/12/19 03:39:26;;;;;;;6.45;3.83;;;;;;;4.37;75.87;101513.97;1088027;54;20030;-75
2021/12/19 03:40:39;;;;;;;6.32;4.05;;;;;;;4.40;75.80;101511.22;1088236;54;20062;-75
2021/12/19 03:41:41;;;;;;;7.43;4.22;;;;;;;4.10;76.38;101511.63;1088929;46;20019;-75
2021/12/19 03:42:50;;;;;;;8.27;5.50;;;;;;;3.96;76.87;101514.88;1088228;54;20061;-75
2021/12/19 03:43:51;;;;;;;9.50;5.57;;;;;;;3.99;77.06;101512.13;1088041;54;20034;-75
2021/12/19 03:44:57;;;;;;;9.40;5.88;;;;;;;3.88;77.25;101512.56;1088009;54;20015;-76
2021/12/19 03:45:58;;;;;;;8.95;4.97;;;;;;;3.81;77.58;101511.09;1087931;54;20031;-75
2021/12/19 03:47:09;;;;;;;11.05;5.28;;;;;;;3.74;77.92;101512.28;1088119;54;20030;-75
2021/12/19 03:48:13;;;;;;;10.40;5.63;;;;;;;3.68;78.05;101507.28;1088174;54;20019;-76
2021/12/19 03:49:19;;;;;;;9.32;5.25;;;;;;;3.86;77.58;101503.84;1088123;54;20030;-76
2021/12/19 03:50:23;;;;;;;7.78;4.88;;;;;;;4.01;77.45;101512.03;1093801;39;20620;-75
2021/12/19 03:51:27;;;;;;;9.75;5.35;;;;;;;3.89;77.61;101493.13;1087865;54;20030;-75
2021/12/19 03:52:32;;;;;;;10.35;5.78;;;;;;;3.78;78.00;101503.28;1087863;47;20114;-75
2021/12/19 03:53:36;;;;;;;8.27;5.38;;;;;;;3.93;78.15;101499.13;1087958;54;20019;-75
2021/12/19 03:54:40;;;;;;;8.52;4.63;;;;;;;4.04;77.34;101494.22;1088137;54;20034;-75
2021/12/19 03:55:42;;;;;;;8.70;5.03;;;;;;;4.09;77.26;101491.38;1088197;54;20038;-74
2021/12/19 03:56:46;;;;;;;7.82;4.72;;;;;;;4.16;77.01;101492.81;1087894;54;20034;-75
2021/12/19 03:57:48;;;;;;;8.68;4.85;;;;;;;4.16;77.35;101494.63;1087735;54;20035;-74
2021/12/19 03:58:54;;;;;;;8.43;5.00;;;;;;;4.19;77.18;101486.56;1087845;54;20034;-74
2021/12/19 03:59:55;;;;;;;6.93;4.10;;;;;;;4.06;77.05;101476.50;1087811;54;20091;-74
2021/12/19 04:01:04;;;;;;;6.38;4.07;;;;;;;4.18;77.22;101488.34;1090873;39;20265;-75
2021/12/19 04:02:09;;;;;;;6.32;3.85;;;;;;;4.13;77.01;101484.16;1087520;54;20035;-75
2021/12/19 04:03:17;;;;;;;7.68;4.43;;;;;;;4.01;77.38;101478.50;1087687;54;20647;-75
2021/12/19 04:04:22;;;;;;;6.28;3.97;;;;;;;4.00;77.28;101487.38;1087807;54;20086;-75
2021/12/19 04:05:24;;;;;;;7.32;3.85;;;;;;;3.99;76.98;101483.00;1087561;46;20026;-75
2021/12/19 04:06:28;;;;;;;7.40;4.22;;;;;;;3.88;77.71;101477.31;1088243;46;20034;-74
2021/12/19 04:07:30;;;;;;;6.75;3.50;;;;;;;4.05;77.13;101473.94;1087711;54;20037;-76
2021/12/19 04:08:34;;;;;;;6.72;3.70;;;;;;;4.11;77.17;101476.31;1087720;54;20038;-74
2021/12/19 04:09:38;;;;;;;6.85;3.67;;;;;;;4.16;76.71;101484.03;1087757;54;20053;-75
2021/12/19 04:10:43;;;;;;;6.20;3.50;;;;;;;4.12;76.84;101475.38;1087788;54;20031;-75
2021/12/19 04:11:45;;;;;;;7.15;4.07;;;;;;;4.01;76.95;101477.63;1087633;54;20034;-76
2021/12/19 04:12:49;;;;;;;6.88;4.32;;;;;;;3.93;77.29;101469.19;1087725;54;20041;-75
2021/12/19 04:13:50;;;;;;;8.57;4.72;;;;;;;3.78;77.72;101482.13;1087686;54;20038;-76
2021/12/19 04:14:54;;;;;;;7.43;4.07;;;;;;;3.65;78.29;101476.50;1087798;54;20023;-76
2021/12/19 04:15:56;;;;;;;6.90;4.13;;;;;;;3.59;78.50;101480.25;1087810;54;20042;-76
2021/12/19 04:17:00;;;;;;;8.90;4.50;;;;;;;3.62;78.48;101474.00;1087737;54;20038;-75
2021/12/19 04:18:02;;;;;;;6.82;4.32;;;;;;;3.55;78.61;101481.34;1087652;54;20066;-76
2021/12/19 04:19:06;;;;;;;7.53;4.70;;;;;;;3.54;78.68;101476.97;1087649;54;20034;-75
2021/12/19 04:20:09;;;;;;;6.03;3.65;;;;;;;3.52;79.00;101484.09;1092866;31;20703;-74
2021/12/19 04:21:13;;;;;;;7.63;4.05;;;;;;;3.44;78.81;101475.63;1087717;54;20778;-77
2021/12/19 04:22:15;;;;;;;7.43;4.28;;;;;;;3.68;78.36;101480.81;1087794;54;20057;-75
2021/12/19 04:23:19;;;;;;;6.55;3.80;;;;;;;3.67;78.14;101471.16;1087736;54;20038;-76
2021/12/19 04:24:21;;;;;;;6.93;4.35;;;;;;;3.62;78.25;101470.50;1087707;54;20069;-75
2021/12/19 04:25:27;;;;;;;6.75;4.03;;;;;;;3.66;78.47;101469.44;1087664;54;20065;-76
2021/12/19 04:26:29;;;;;;;6.93;4.03;;;;;;;3.69;78.07;101471.94;1087984;46;20042;-75
2021/12/19 04:27:33;;;;;;;7.30;4.13;;;;;;;3.59;78.54;101469.69;1087640;54;20030;-75
2021/12/19 04:28:35;;;;;;;8.18;3.78;;;;;;;3.53;78.54;101475.25;1087530;54;20106;-75
2021/12/19 04:29:39;;;;;;;9.25;4.32;;;;;;;3.56;78.74;101468.97;1087565;54;20045;-75
2021/12/19 04:30:41;;;;;;;9.18;4.53;;;;;;;3.56;78.77;101471.59;1087637;54;20034;-73
2021/12/19 04:31:45;;;;;;;7.13;4.25;;;;;;;3.59;78.84;101474.13;1087686;54;20037;-77
2021/12/19 04:32:56;;;;;;;6.55;3.67;;;;;;;3.72;78.33;101469.16;1087707;54;20034;-74
2021/12/19 04:34:00;;;;;;;6.75;4.13;;;;;;;3.71;78.21;101468.31;1088141;39;20641;-77
2021/12/19 04:35:02;;;;;;;7.25;4.15;;;;;;;3.51;79.14;101471.78;1087684;54;20041;-75
2021/12/19 04:36:09;;;;;;;7.43;4.32;;;;;;;3.54;79.21;101476.13;1087739;54;20030;-74
2021/12/19 04:37:29;;;;;;;7.28;4.03;;;;;;;3.52;79.27;101470.88;1087540;54;20030;-74
2021/12/19 04:40:11;;;;;;;8.82;4.60;;;;;;;3.52;79.31;101465.59;1087352;54;20034;-76
2021/12/19 04:52:19;;;;;;;7.85;4.72;;;;;;;3.43;80.00;101468.63;1087195;54;20319;-75
2021/12/19 04:53:31;;;;;;;8.27;5.30;;;;;;;3.27;80.72;101461.34;1087726;39;20339;-76
2021/12/19 04:54:52;;;;;;;8.88;5.10;;;;;;;3.23;80.81;101457.06;1088207;39;20933;-75
2021/12/19 04:56:17;;;;;;;8.70;5.10;;;;;;;3.27;81.14;101463.97;1087267;54;20034;-78
2021/12/19 04:57:32;;;;;;;8.95;5.30;;;;;;;3.29;81.32;101461.25;1090058;39;20643;-79
2021/12/19 05:00:16;;;;;;;8.90;4.70;;;;;;;3.28;81.49;101470.97;1087533;54;20034;-78
2021/12/19 05:01:51;;;;;;;8.45;4.60;;;;;;;3.41;81.13;101470.47;1087329;54;20038;-80
2021/12/19 05:02:59;;;;;;;9.05;4.53;;;;;;;3.27;81.35;101469.25;1087823;54;20046;-80
2021/12/19 05:04:12;;;;;;;14.75;5.45;;;;;;;3.35;81.28;101476.88;1087803;54;20019;-79
2021/12/19 05:05:45;;;;;;;8.52;4.97;;;;;;;3.33;81.68;101473.44;1088078;46;20098;-79
2021/12/19 05:14:01;;;;;;;8.05;4.35;;;;;;;3.36;81.59;101473.28;1087856;54;20058;-78
2021/12/19 05:14:47;;;;;;;8.25;4.85;;;;;;;3.52;81.63;101473.53;1087935;54;20034;-80
2021/12/19 05:15:49;;;;;;;8.88;4.93;;;;;;;3.50;81.68;101475.38;1087896;54;20060;-80
2021/12/19 05:16:53;;;;;;;8.68;5.15;;;;;;;3.43;82.01;101465.97;1087680;54;20049;-80
2021/12/19 05:18:01;;;;;;;8.65;4.90;;;;;;;3.39;82.09;101472.34;1087743;54;20071;-78
2021/12/19 05:19:17;;;;;;;8.10;4.78;;;;;;;3.45;82.16;101464.13;1087833;54;20116;-78
2021/12/19 05:20:25;;;;;;;9.82;5.40;;;;;;;3.39;82.81;101464.41;1089236;46;20037;-79
2021/12/19 05:21:28;;;;;;;10.90;5.50;;;;;;;3.27;83.16;101458.69;1088907;46;20054;-78
2021/12/19 05:22:38;;;;;;;9.68;5.63;;;;;;;3.32;83.05;101461.13;1091262;46;20018;-77
2021/12/19 05:24:02;;;;;;;9.57;5.70;;;;;;;3.15;83.98;101461.81;1088698;47;20034;-78
2021/12/19 05:25:14;;;;;;;9.75;5.65;;;;;;;3.22;83.90;101468.56;1088010;54;20042;-80
2021/12/19 05:26:15;;;;;;;9.38;5.53;;;;;;;3.16;83.99;101455.63;1087939;54;20098;-78
2021/12/19 05:27:20;;;;;;;8.85;5.00;;;;;;;3.12;84.12;101457.53;1087866;47;20050;-80
2021/12/19 05:28:24;;;;;;;12.50;5.68;;;;;;;3.17;84.45;101449.41;1087941;54;20058;-80
2021/12/19 05:29:28;;;;;;;9.57;5.47;;;;;;;3.34;83.78;101453.13;1087926;54;20734;-81
2021/12/19 05:30:30;;;;;;;7.90;5.32;;;;;;;3.26;83.75;101448.16;1088007;54;20038;-79
2021/12/19 05:31:35;;;;;;;10.40;5.13;;;;;;;3.36;83.68;101452.13;1088261;54;20053;-79
2021/12/19 05:32:37;;;;;;;9.27;5.25;;;;;;;3.30;83.93;101447.13;1088246;54;20034;-80
2021/12/19 05:33:42;;;;;;;9.10;5.05;;;;;;;3.38;83.62;101441.53;1088175;54;20104;-79
2021/12/19 05:34:46;;;;;;;10.13;4.97;;;;;;;3.26;83.86;101446.38;1088139;54;20030;-79
2021/12/19 05:36:10;;;;;;;9.13;5.63;;;;;;;3.03;84.77;101443.81;1087724;54;20045;-77
2021/12/19 05:45:19;;;;;;;9.45;4.57;;;;;;;2.92;85.41;101437.19;1088041;54;20033;-79
2021/12/19 05:46:24;;;;;;;9.98;5.60;;;;;;;2.93;85.61;101430.97;1088076;54;20042;-80
2021/12/19 05:47:25;;;;;;;8.68;4.75;;;;;;;2.89;85.54;101431.16;1087961;54;20096;-80
2021/12/19 05:48:30;;;;;;;10.07;5.60;;;;;;;2.96;85.42;101438.78;1088030;54;20041;-80
2021/12/19 05:49:31;;;;;;;8.25;5.05;;;;;;;2.84;86.12;101439.25;1087521;54;20030;-76
2021/12/19 05:50:37;;;;;;;7.85;4.53;;;;;;;2.91;85.82;101435.47;1089585;39;20599;-80